createdAt,value
2023-06-22T00:01:00.433Z,82.31
2023-06-22T00:03:40.734Z,82.65
2023-06-22T00:06:14.670Z,82.86
2023-06-22T00:08:48.572Z,83.13
2023-06-22T00:11:22.507Z,83.15
2023-06-22T00:13:57.124Z,83.22
2023-06-22T00:16:33.457Z,83.26
2023-06-22T00:19:08.711Z,83.14
2023-06-22T00:21:48.264Z,83.18
2023-06-22T00:24:26.390Z,83.10
2023-06-22T00:27:00.752Z,83.15
2023-06-22T00:29:36.402Z,83.18
2023-06-22T00:32:11.106Z,83.19
2023-06-22T00:34:48.147Z,83.30
2023-06-22T00:37:24.268Z,83.33
2023-06-22T00:40:00.833Z,83.44
2023-06-22T00:42:35.375Z,83.41
2023-06-22T00:45:13.308Z,83.43
2023-06-22T00:47:48.142Z,83.18
2023-06-22T00:50:25.921Z,83.13
2023-06-22T00:53:02.941Z,83.09
2023-06-22T00:55:40.196Z,82.93
2023-06-22T00:58:17.929Z,82.69
2023-06-22T01:00:53.897Z,82.55
2023-06-22T01:03:32.223Z,82.44
2023-06-22T01:06:12.984Z,82.27
2023-06-22T01:08:55.442Z,82.37
2023-06-22T01:11:36.996Z,82.48
2023-06-22T01:14:18.391Z,82.47
2023-06-22T01:16:54.671Z,82.58
2023-06-22T01:19:57.770Z,82.91
2023-06-22T01:22:44.982Z,82.94
2023-06-22T01:25:30.030Z,83.12
2023-06-22T01:28:19.503Z,83.16
2023-06-22T01:31:07.513Z,83.55
2023-06-22T01:33:48.828Z,83.69
2023-06-22T01:36:27.808Z,83.94
2023-06-22T01:39:05.519Z,84.04
2023-06-22T01:41:43.884Z,84.12
2023-06-22T01:44:20.076Z,84.25
2023-06-22T01:46:55.443Z,84.06
2023-06-22T01:49:32.302Z,83.93
2023-06-22T01:52:06.439Z,84.02
2023-06-22T01:54:43.305Z,83.95
2023-06-22T01:57:18.648Z,83.87
2023-06-22T02:00:00.349Z,83.58
2023-06-22T02:02:42.398Z,83.61
2023-06-22T02:05:20.542Z,83.67
2023-06-22T02:08:02.615Z,83.59
2023-06-22T02:10:42.750Z,83.67
2023-06-22T02:13:17.770Z,83.81
2023-06-22T02:15:54.160Z,83.77
2023-06-22T02:18:28.237Z,83.67
2023-06-22T02:21:01.604Z,83.73
2023-06-22T02:23:39.482Z,83.73
2023-06-22T02:26:15.163Z,83.87
2023-06-22T02:28:50.033Z,83.77
2023-06-22T02:31:33.298Z,83.73
2023-06-22T02:34:07.583Z,83.46
2023-06-22T02:36:52.707Z,83.60
2023-06-22T02:39:28.807Z,83.50
2023-06-22T02:42:02.253Z,83.41
2023-06-22T02:44:35.825Z,83.40
2023-06-22T02:47:13.149Z,83.27
2023-06-22T02:49:48.948Z,83.38
2023-06-22T02:52:28.335Z,83.39
2023-06-22T02:55:02.428Z,83.50
2023-06-22T02:57:37.335Z,83.60
2023-06-22T03:00:19.244Z,83.64
2023-06-22T03:02:55.486Z,83.92
2023-06-22T03:05:31.988Z,83.90
2023-06-22T03:08:07.091Z,84.14
2023-06-22T03:10:43.737Z,84.07
2023-06-22T03:13:19.165Z,83.99
2023-06-22T03:15:53.918Z,83.87
2023-06-22T03:18:32.501Z,83.79
2023-06-22T03:21:09.077Z,83.72
2023-06-22T03:23:44.888Z,83.66
2023-06-22T03:26:23.177Z,83.60
2023-06-22T03:28:58.427Z,83.53
2023-06-22T03:31:33.310Z,83.46
2023-06-22T03:34:12.391Z,83.46
2023-06-22T03:36:47.259Z,83.51
2023-06-22T03:39:22.571Z,83.42
2023-06-22T03:41:56.075Z,83.34
2023-06-22T03:44:31.805Z,83.17
2023-06-22T03:47:09.476Z,82.74
2023-06-22T03:49:45.395Z,82.60
2023-06-22T03:52:20.358Z,82.65
2023-06-22T03:54:55.301Z,82.59
2023-06-22T03:57:29.451Z,82.08
2023-06-22T04:00:06.819Z,82.17
2023-06-22T04:02:47.416Z,82.15
2023-06-22T04:05:21.679Z,81.96
2023-06-22T04:07:57.329Z,81.71
2023-06-22T04:10:32.477Z,81.68
2023-06-22T04:13:06.021Z,81.53
2023-06-22T04:15:40.174Z,80.85
2023-06-22T04:18:15.269Z,80.52
2023-06-22T04:20:50.591Z,80.60
2023-06-22T04:23:25.820Z,80.65
2023-06-22T04:25:59.646Z,80.21
2023-06-22T04:28:37.420Z,80.21
2023-06-22T04:31:12.880Z,79.88
2023-06-22T04:33:47.130Z,79.72
2023-06-22T04:36:25.332Z,79.23
2023-06-22T04:39:00.322Z,78.74
2023-06-22T04:41:43.525Z,79.09
2023-06-22T04:44:26.646Z,78.95
2023-06-22T04:47:05.258Z,78.78
2023-06-22T04:49:44.800Z,78.43
2023-06-22T04:52:21.801Z,78.35
2023-06-22T04:55:00.990Z,78.26
2023-06-22T04:57:36.396Z,77.99
2023-06-22T05:00:18.369Z,77.25
2023-06-22T05:02:55.041Z,76.60
2023-06-22T05:05:34.236Z,76.45
2023-06-22T05:08:08.559Z,76.61
2023-06-22T05:10:59.904Z,76.81
2023-06-22T05:13:38.959Z,76.21
2023-06-22T05:16:13.663Z,76.03
2023-06-22T05:18:50.532Z,75.95
2023-06-22T05:21:29.390Z,75.59
2023-06-22T05:24:06.163Z,75.57
2023-06-22T05:26:42.303Z,75.73
2023-06-22T05:29:19.825Z,75.27
2023-06-22T05:31:55.944Z,75.55
2023-06-22T05:34:30.897Z,75.46
2023-06-22T05:37:05.274Z,74.87
2023-06-22T05:39:41.516Z,74.72
2023-06-22T05:42:15.637Z,74.62
2023-06-22T05:44:48.848Z,74.86
2023-06-22T05:47:24.385Z,74.81
2023-06-22T05:50:00.176Z,74.61
2023-06-22T05:52:37.257Z,74.64
2023-06-22T05:55:14.587Z,74.74
2023-06-22T05:57:47.856Z,74.35
2023-06-22T06:00:27.233Z,74.07
2023-06-22T06:03:09.989Z,73.45
2023-06-22T06:05:46.489Z,73.33
2023-06-22T06:08:19.985Z,73.32
2023-06-22T06:10:56.743Z,73.16
2023-06-22T06:13:31.858Z,72.85
2023-06-22T06:16:07.790Z,72.32
2023-06-22T06:18:41.307Z,72.39
2023-06-22T06:21:16.586Z,72.17
2023-06-22T06:23:51.243Z,71.93
2023-06-22T06:26:31.582Z,71.45
2023-06-22T06:29:07.682Z,70.92
2023-06-22T06:31:42.613Z,70.87
2023-06-22T06:34:18.052Z,70.73
2023-06-22T06:36:52.685Z,70.05
2023-06-22T06:39:26.684Z,69.27
2023-06-22T06:42:01.135Z,68.75
2023-06-22T06:44:34.832Z,67.70
2023-06-22T06:47:11.215Z,67.18
2023-06-22T06:49:45.670Z,66.88
2023-06-22T06:52:21.060Z,66.39
2023-06-22T06:54:56.652Z,65.88
2023-06-22T06:57:33.765Z,65.58
2023-06-22T07:00:13.612Z,65.37
2023-06-22T07:02:50.411Z,65.43
2023-06-22T07:05:26.501Z,65.49
2023-06-22T07:08:00.944Z,65.24
2023-06-22T07:10:38.300Z,65.23
2023-06-22T07:13:13.149Z,65.82
2023-06-22T07:15:47.109Z,66.05
2023-06-22T07:18:22.221Z,66.16
2023-06-22T07:20:57.557Z,66.10
2023-06-22T07:23:31.410Z,65.77
2023-06-22T07:26:09.003Z,66.32
2023-06-22T07:28:43.634Z,65.69
2023-06-22T07:31:19.053Z,65.35
2023-06-22T07:33:53.326Z,64.31
2023-06-22T07:36:31.913Z,64.42
2023-06-22T07:39:06.280Z,63.92
2023-06-22T07:41:41.950Z,62.52
2023-06-22T07:44:16.008Z,61.63
2023-06-22T07:46:53.008Z,61.11
2023-06-22T07:49:30.021Z,60.66
2023-06-22T07:52:07.238Z,59.88
2023-06-22T07:54:43.385Z,60.02
2023-06-22T07:57:18.739Z,59.98
2023-06-22T07:59:53.593Z,59.78
2023-06-22T08:02:27.961Z,59.13
2023-06-22T08:05:19.928Z,59.41
2023-06-22T08:07:56.598Z,58.91
2023-06-22T08:10:31.296Z,59.01
2023-06-22T08:13:07.409Z,60.06
2023-06-22T08:15:44.463Z,59.07
2023-06-22T08:18:18.060Z,58.65
2023-06-22T08:20:51.738Z,58.77
2023-06-22T08:23:26.054Z,59.00
2023-06-22T08:26:05.089Z,59.20
2023-06-22T08:28:42.186Z,59.47
2023-06-22T08:31:18.694Z,59.24
2023-06-22T08:33:55.981Z,59.62
2023-06-22T08:36:30.321Z,58.99
2023-06-22T08:39:06.384Z,58.92
2023-06-22T08:41:40.208Z,58.45
2023-06-22T08:44:18.516Z,58.11
2023-06-22T08:46:53.163Z,57.57
2023-06-22T08:49:30.416Z,57.02
2023-06-22T08:52:05.128Z,56.96
2023-06-22T08:54:42.772Z,55.59
2023-06-22T08:57:17.549Z,54.94
2023-06-22T08:59:54.432Z,54.19
2023-06-22T09:02:32.231Z,53.77
2023-06-22T09:05:08.289Z,54.02
2023-06-22T09:07:43.143Z,53.93
2023-06-22T09:10:18.141Z,53.95
2023-06-22T09:12:55.285Z,53.04
2023-06-22T09:15:31.890Z,52.20
2023-06-22T09:18:07.686Z,52.67
2023-06-22T09:20:40.760Z,52.86
2023-06-22T09:23:16.300Z,52.53
2023-06-22T09:25:51.328Z,52.29
2023-06-22T09:28:24.721Z,52.26
2023-06-22T09:31:00.427Z,52.11
2023-06-22T09:33:35.776Z,51.40
2023-06-22T09:36:11.576Z,50.77
2023-06-22T09:38:45.577Z,50.86
2023-06-22T09:41:19.666Z,50.61
2023-06-22T09:43:56.723Z,49.83
2023-06-22T09:46:33.666Z,49.05
2023-06-22T09:49:08.359Z,49.52
2023-06-22T09:51:45.318Z,49.21
2023-06-22T09:54:19.587Z,49.12
2023-06-22T09:56:56.271Z,49.59
2023-06-22T09:59:33.740Z,49.52
2023-06-22T10:02:09.499Z,49.63
2023-06-22T10:04:44.129Z,49.03
2023-06-22T10:07:19.538Z,49.74
2023-06-22T10:09:53.776Z,49.08
2023-06-22T10:12:28.720Z,48.65
2023-06-22T10:15:11.639Z,47.63
2023-06-22T10:17:47.641Z,46.97
2023-06-22T10:20:23.487Z,46.71
2023-06-22T10:22:59.643Z,45.89
2023-06-22T10:25:34.741Z,46.49
2023-06-22T10:28:09.471Z,45.75
2023-06-22T10:30:46.507Z,45.64
2023-06-22T10:33:21.839Z,45.68
2023-06-22T10:35:56.667Z,44.86
2023-06-22T10:38:32.049Z,45.03
2023-06-22T10:41:06.000Z,45.29
2023-06-22T10:43:40.836Z,45.37
2023-06-22T10:46:16.090Z,46.03
2023-06-22T10:48:50.334Z,45.77
2023-06-22T10:51:24.582Z,44.98
2023-06-22T10:53:58.262Z,44.85
2023-06-22T10:56:34.803Z,45.12
2023-06-22T10:59:08.814Z,44.91
2023-06-22T11:01:43.983Z,44.08
2023-06-22T11:04:18.776Z,44.48
2023-06-22T11:06:54.849Z,43.94
2023-06-22T11:09:29.736Z,44.30
2023-06-22T11:12:03.816Z,44.75
2023-06-22T11:14:38.012Z,44.30
2023-06-22T11:17:14.112Z,43.51
2023-06-22T11:19:48.911Z,43.48
2023-06-22T11:22:23.065Z,43.23
2023-06-22T11:24:57.613Z,43.24
2023-06-22T11:27:33.726Z,43.63
2023-06-22T11:30:12.693Z,42.34
2023-06-22T11:32:47.447Z,42.27
2023-06-22T11:35:21.575Z,42.68
2023-06-22T11:37:59.667Z,42.82
2023-06-22T11:40:35.602Z,42.32
2023-06-22T11:43:10.146Z,42.85
2023-06-22T11:45:46.132Z,43.06
2023-06-22T11:48:19.930Z,42.80
2023-06-22T11:50:55.515Z,43.27
2023-06-22T11:53:32.163Z,44.00
2023-06-22T11:56:06.548Z,44.23
2023-06-22T11:58:41.716Z,44.36
2023-06-22T12:01:17.070Z,44.55
2023-06-22T12:03:51.049Z,43.40
2023-06-22T12:06:24.943Z,42.61
2023-06-22T12:08:59.176Z,42.87
2023-06-22T12:11:33.758Z,43.54
2023-06-22T12:14:10.581Z,43.41
2023-06-22T12:16:45.252Z,43.33
2023-06-22T12:19:19.818Z,43.37
2023-06-22T12:21:54.129Z,43.32
2023-06-22T12:24:29.109Z,42.47
2023-06-22T12:27:04.862Z,43.30
2023-06-22T12:29:38.132Z,44.17
2023-06-22T12:32:15.561Z,43.34
2023-06-22T12:34:51.641Z,43.23
2023-06-22T12:37:26.935Z,43.20
2023-06-22T12:40:05.386Z,43.05
2023-06-22T12:42:40.282Z,43.33
2023-06-22T12:45:16.846Z,43.32
2023-06-22T12:47:54.899Z,43.01
2023-06-22T12:50:29.777Z,43.15
2023-06-22T12:53:06.220Z,43.19
2023-06-22T12:55:40.086Z,43.25
2023-06-22T12:58:15.485Z,42.79
2023-06-22T13:00:52.077Z,42.17
2023-06-22T13:03:29.423Z,42.27
2023-06-22T13:06:05.312Z,42.15
2023-06-22T13:11:16.913Z,42.05
2023-06-22T13:13:53.745Z,40.64
2023-06-22T13:16:26.669Z,40.45
2023-06-22T13:19:01.680Z,40.76
2023-06-22T13:21:38.681Z,41.33
2023-06-22T13:24:14.226Z,41.14
2023-06-22T13:26:49.759Z,41.00
2023-06-22T13:29:23.262Z,40.70
2023-06-22T13:31:59.345Z,41.24
2023-06-22T13:34:33.432Z,40.86
2023-06-22T13:37:08.291Z,41.14
2023-06-22T13:39:43.042Z,41.63
2023-06-22T13:42:16.678Z,41.70
2023-06-22T13:44:51.399Z,41.34
2023-06-22T13:47:30.882Z,41.26
2023-06-22T13:50:06.277Z,41.31
2023-06-22T13:52:40.999Z,42.11
2023-06-22T13:55:18.642Z,42.24
2023-06-22T13:57:53.256Z,41.96
2023-06-22T14:00:29.640Z,41.69
2023-06-22T14:03:04.825Z,41.31
2023-06-22T14:05:39.555Z,41.69
2023-06-22T14:08:39.689Z,41.84
2023-06-22T14:11:11.544Z,41.43
2023-06-22T14:13:49.080Z,41.00
2023-06-22T14:16:24.442Z,41.30
2023-06-22T14:18:58.459Z,41.33
2023-06-22T14:21:33.010Z,40.85
2023-06-22T14:24:09.747Z,40.73
2023-06-22T14:26:42.930Z,40.68
2023-06-22T14:29:17.939Z,40.60
2023-06-22T14:31:53.152Z,40.75
2023-06-22T14:34:26.541Z,40.61
2023-06-22T14:37:00.949Z,40.74
2023-06-22T14:39:34.672Z,40.80
2023-06-22T14:42:10.591Z,40.30
2023-06-22T14:44:46.547Z,40.17
2023-06-22T14:47:22.314Z,40.23
2023-06-22T14:49:57.432Z,39.99
2023-06-22T14:52:32.628Z,39.91
2023-06-22T14:55:06.959Z,39.72
2023-06-22T14:57:41.712Z,39.80
2023-06-22T15:00:18.213Z,39.60
2023-06-22T15:02:53.444Z,39.75
2023-06-22T15:05:30.977Z,39.74
2023-06-22T15:08:04.413Z,39.59
2023-06-22T15:10:40.469Z,39.84
2023-06-22T15:13:15.449Z,39.53
2023-06-22T15:15:54.521Z,39.42
2023-06-22T15:18:29.409Z,39.43
2023-06-22T15:21:05.586Z,39.11
2023-06-22T15:23:40.566Z,39.11
2023-06-22T15:26:17.803Z,38.38
2023-06-22T15:28:52.070Z,38.67
2023-06-22T15:31:26.209Z,38.38
2023-06-22T15:34:00.757Z,38.62
2023-06-22T15:36:35.715Z,38.94
2023-06-22T15:39:12.264Z,38.84
2023-06-22T15:41:47.403Z,38.40
2023-06-22T15:44:22.743Z,38.83
2023-06-22T15:46:59.313Z,38.53
2023-06-22T15:49:32.644Z,38.51
2023-06-22T15:52:07.225Z,38.51
2023-06-22T15:54:41.979Z,38.33
2023-06-22T15:57:18.974Z,38.25
2023-06-22T15:59:58.614Z,38.18
2023-06-22T16:02:33.381Z,37.96
2023-06-22T16:05:10.920Z,37.71
2023-06-22T16:07:47.513Z,37.51
2023-06-22T16:10:21.350Z,37.85
2023-06-22T16:12:56.192Z,37.99
2023-06-22T16:15:31.722Z,37.63
2023-06-22T16:18:09.662Z,37.92
2023-06-22T16:20:43.608Z,37.99
2023-06-22T16:23:19.616Z,38.01
2023-06-22T16:25:54.630Z,37.97
2023-06-22T16:28:30.277Z,38.17
2023-06-22T16:31:07.033Z,38.09
2023-06-22T16:33:40.821Z,38.13
2023-06-22T16:36:15.659Z,38.26
2023-06-22T16:38:52.826Z,38.01
2023-06-22T16:41:34.860Z,37.98
2023-06-22T16:44:07.907Z,37.81
2023-06-22T16:46:41.971Z,37.80
2023-06-22T16:49:19.564Z,37.42
2023-06-22T16:51:55.413Z,37.80
2023-06-22T16:54:39.775Z,37.94
2023-06-22T16:57:19.169Z,38.33
2023-06-22T16:59:55.796Z,38.25
2023-06-22T17:02:35.619Z,38.33
2023-06-22T17:05:11.374Z,38.56
2023-06-22T17:07:51.017Z,38.71
2023-06-22T17:10:25.575Z,38.75
2023-06-22T17:13:00.211Z,38.74
2023-06-22T17:15:39.756Z,38.59
2023-06-22T17:18:18.751Z,38.99
2023-06-22T17:20:55.402Z,38.72
2023-06-22T17:23:31.632Z,38.62
2023-06-22T17:26:08.285Z,38.88
2023-06-22T17:29:02.221Z,38.93
2023-06-22T17:31:45.002Z,38.96
2023-06-22T17:34:23.192Z,39.22
2023-06-22T17:36:59.105Z,39.22
2023-06-22T17:39:34.417Z,39.08
2023-06-22T17:42:11.962Z,39.59
2023-06-22T17:44:47.803Z,39.48
2023-06-22T17:47:30.051Z,39.79
2023-06-22T17:50:13.480Z,39.68
2023-06-22T17:52:55.186Z,39.61
2023-06-22T17:55:31.053Z,39.88
2023-06-22T17:58:06.563Z,40.00
2023-06-22T18:00:45.899Z,39.77
2023-06-22T18:03:27.567Z,40.02
2023-06-22T18:06:02.401Z,40.45
2023-06-22T18:08:37.052Z,40.68
2023-06-22T18:11:13.031Z,40.52
2023-06-22T18:13:50.705Z,40.46
2023-06-22T18:16:28.999Z,40.55
2023-06-22T18:19:07.730Z,40.86
2023-06-22T18:21:44.314Z,40.67
2023-06-22T18:24:21.524Z,40.63
2023-06-22T18:26:55.880Z,40.67
2023-06-22T18:29:32.056Z,40.63
2023-06-22T18:32:06.799Z,40.93
2023-06-22T18:34:42.107Z,40.91
2023-06-22T18:37:18.888Z,41.02
2023-06-22T18:40:03.444Z,41.34
2023-06-22T18:42:42.975Z,41.62
2023-06-22T18:45:29.391Z,41.55
2023-06-22T18:48:13.487Z,41.83
2023-06-22T18:50:49.008Z,42.04
2023-06-22T18:53:30.939Z,42.33
2023-06-22T18:56:17.569Z,42.44
2023-06-22T18:59:00.172Z,42.43
2023-06-22T19:01:35.942Z,42.81
2023-06-22T19:04:23.089Z,43.21
2023-06-22T19:07:03.579Z,43.49
2023-06-22T19:09:39.820Z,43.58
2023-06-22T19:12:24.204Z,43.70
2023-06-22T19:15:13.634Z,43.95
2023-06-22T19:17:51.523Z,44.25
2023-06-22T19:20:33.845Z,44.48
2023-06-22T19:23:07.483Z,44.53
2023-06-22T19:25:50.530Z,44.97
2023-06-22T19:28:27.911Z,45.27
2023-06-22T19:31:06.304Z,45.52
2023-06-22T19:33:44.308Z,45.91
2023-06-22T19:36:25.710Z,46.08
2023-06-22T19:39:03.077Z,46.17
2023-06-22T19:41:48.691Z,46.33
2023-06-22T19:44:25.716Z,46.48
2023-06-22T19:47:01.018Z,46.46
2023-06-22T19:49:38.139Z,46.92
2023-06-22T19:52:14.277Z,47.08
2023-06-22T19:54:51.940Z,47.26
2023-06-22T19:57:27.638Z,47.58
2023-06-22T20:00:08.708Z,47.73
2023-06-22T20:02:44.965Z,48.05
2023-06-22T20:05:22.248Z,48.37
2023-06-22T20:07:56.712Z,48.66
2023-06-22T20:10:44.268Z,48.96
2023-06-22T20:13:23.424Z,49.22
2023-06-22T20:15:59.212Z,49.31
2023-06-22T20:18:38.022Z,49.55
2023-06-22T20:21:19.410Z,49.76
2023-06-22T20:23:54.842Z,50.09
2023-06-22T20:26:29.591Z,50.34
2023-06-22T20:29:25.946Z,50.39
2023-06-22T20:32:14.588Z,50.67
2023-06-22T20:34:50.537Z,51.11
2023-06-22T20:37:27.606Z,51.42
2023-06-22T20:40:01.394Z,51.73
2023-06-22T20:42:35.231Z,51.93
2023-06-22T20:45:18.747Z,51.94
2023-06-22T20:47:53.358Z,52.25
2023-06-22T20:50:31.244Z,52.37
2023-06-22T20:53:08.747Z,52.38
2023-06-22T20:55:42.060Z,52.57
2023-06-22T20:58:16.232Z,52.86
2023-06-22T21:00:51.981Z,52.74
2023-06-22T21:03:27.181Z,53.04
2023-06-22T21:06:01.507Z,53.25
2023-06-22T21:08:36.926Z,53.52
2023-06-22T21:11:13.830Z,53.71
2023-06-22T21:13:47.756Z,53.95
2023-06-22T21:16:22.226Z,54.47
2023-06-22T21:18:56.450Z,54.79
2023-06-22T21:21:32.560Z,55.14
2023-06-22T21:24:10.997Z,55.04
2023-06-22T21:26:44.745Z,55.24
2023-06-22T21:29:18.845Z,55.53
2023-06-22T21:31:55.102Z,55.47
2023-06-22T21:34:30.293Z,55.46
2023-06-22T21:37:06.667Z,55.69
2023-06-22T21:39:40.805Z,55.99
2023-06-22T21:42:15.667Z,56.18
2023-06-22T21:44:49.673Z,56.18
2023-06-22T21:47:23.825Z,56.35
2023-06-22T21:49:59.776Z,56.32
2023-06-22T21:52:34.520Z,56.52
2023-06-22T21:55:09.786Z,56.86
2023-06-22T21:57:44.080Z,57.04
2023-06-22T22:00:18.342Z,57.13
2023-06-22T22:02:52.596Z,57.40
2023-06-22T22:05:27.342Z,57.81
2023-06-22T22:08:04.411Z,58.06
2023-06-22T22:10:39.978Z,58.23
2023-06-22T22:13:14.932Z,58.42
2023-06-22T22:15:53.301Z,58.74
2023-06-22T22:18:28.896Z,58.82
2023-06-22T22:21:04.003Z,59.31
2023-06-22T22:23:38.366Z,59.75
2023-06-22T22:26:13.930Z,60.48
2023-06-22T22:28:49.516Z,60.88
2023-06-22T22:31:25.902Z,60.96
2023-06-22T22:34:00.308Z,61.15
2023-06-22T22:36:35.166Z,61.33
2023-06-22T22:39:13.076Z,61.48
2023-06-22T22:41:47.678Z,61.56
2023-06-22T22:44:22.881Z,61.72
2023-06-22T22:46:56.538Z,61.94
2023-06-22T22:49:30.919Z,61.67
2023-06-22T22:52:06.969Z,61.70
2023-06-22T22:54:44.724Z,61.91
2023-06-22T22:57:19.966Z,61.90
2023-06-22T22:59:55.294Z,62.32
2023-06-22T23:02:29.732Z,62.35
2023-06-22T23:05:06.492Z,62.33
2023-06-22T23:07:41.091Z,62.27
2023-06-22T23:10:15.364Z,62.39
2023-06-22T23:12:53.650Z,62.38
2023-06-22T23:15:29.037Z,62.53
2023-06-22T23:18:04.515Z,62.69
2023-06-22T23:20:39.528Z,62.59
2023-06-22T23:23:15.635Z,62.61
2023-06-22T23:25:50.316Z,62.58
2023-06-22T23:28:36.505Z,62.44
2023-06-22T23:31:13.076Z,62.34
2023-06-22T23:33:49.763Z,62.33
2023-06-22T23:36:26.497Z,62.35
2023-06-22T23:39:01.631Z,62.54
2023-06-22T23:41:35.490Z,62.51
2023-06-22T23:44:11.236Z,62.28
2023-06-22T23:46:46.840Z,62.09
2023-06-22T23:49:22.843Z,62.15
2023-06-22T23:51:58.881Z,62.06
2023-06-22T23:54:33.972Z,61.77
2023-06-22T23:57:09.792Z,61.45
2023-06-22T23:59:48.301Z,61.46
